SBOSBO HEL / EFHK
Speedbird OnlineSpeedbird Online HEL / EFHK

Helsinki Vantaa Airport
11:52 19.4°C

Location Helsinki, Finland
Latitude: 60.317199707031
Longitude: 24.963300704956
Local Time 11:52 on 18 Jul 2024
UTC +3 hours (Europe/Helsinki)
Currency £1 equals EUR 1.19
METAR EFHK 180750Z 19013KT 9999 BKN020 20/14 Q1013 NOSIG
TAF TAF AMD EFHK 180550Z 1806/1906 20009KT 9999 FEW011 BKN025 TEMPO 1806/1808 BKN013 PROB40 TEMPO 1808/1812 SCT020CB TEMPO 1818/1823 BKN012 BKN015CB PROB30 TEMPO 1818/1823 7000 TSRA TEMPO 1823/1906 BKN012 FEW015CB
Weather As Of 18 Jul 2024 11:27
Description Broken clouds
Wind 24 km/h from South (193°)
Cloud Cover 75%
Precipitation Rain: none, Snow: none
Sunrise 04:27
Sunset 22:24
NOTAM 8 active NOTAM
Lounges Finnair Business Lounge (Non Schengen area), non Schengen departures
Platinum Wing , Non Schengen departures
Finnair Lounge (Schengen area), Schengen area departures
Plaza Premium Lounge, Terminal
Web Airport Website | Wikipedia
Codes IATA: HEL
ICAO: EFHK
Altitude 55 Meter / 179 Feet
Distance 1,815 KM / 1,128 Miles
from London.
Runways
RunwayLength (m)Surface
04L3060Asphalt
04R3440Asphalt
152901Asphalt
22L3440Asphalt
22R3060Asphalt
332901Asphalt
Radio
TypeDescriptionFrequency
APPAPP119.1
APP129.85
ATISHEL VOR114.2
ATIS135.075
DEL118.125
GNDGND121.8
PMSVPMSV METRO125.1
RMPRMP121.65
TWR22L/04R and 15/33118.6
TWR22R/04L118.85
Live ATC



Support Speedbird Online

© 2017-2024 Speedbird Online